Aviation Digital Data Service (ADDS)

Output produced by METARs form (0605 UTC 25 June 2018)
found at http://www.aviationweather.gov/adds/metars/
 
UAAA 250530Z 02003MPS 330V100 9999 FEW050CB SCT200 28/05 Q1008 R05R/CLRD65 NOSIG
TAF UAAA 250500Z 2506/2606 04005MPS 9999 BKN050CB BKN100 TX31/2509Z TN15/2601Z 
     TEMPO 2506/2516 VRB16MPS 3000 TSRA SQ 
     TEMPO 2516/2602 VRB12MPS 2000 TSRA SQ BKN030CB
       
UAAH 250530Z 21006MPS 9999 SCT033CB 24/12 Q1006 NOSIG RMK QFE716/0955
TAF UAAH 250503Z 2506/2515 19009MPS 9999 -SHRA SCT030CB BKN100 
     TEMPO 2506/2512 VRB15MPS TS SQ
       
UACC 250530Z 35004MPS 290V010 9999 FEW033CB BKN050 21/11 Q1007 R04/0///70 NOSIG RMK QFE724/0965
TAF UACC 250500Z 2506/2606 33008MPS 9999 SCT033CB BKN100 TX23/2509Z TN12/2600Z 
     TEMPO 2506/2516 VRB22MPS 2000 TSRA SQ BKN020CB 
     TEMPO 2519/2606 3000 SHRA SCT007 BKN020CB
       
UACK 250530Z 34006MPS 2700 SHRA BKN020CB BKN050 15/14 Q1008 R02/250260 TEMPO 1000 SHRA RMK QFE732/0976
TAF UACK 250500Z 2506/2515 32006MPS 9999 BKN020CB BKN100 
     TEMPO 2506/2512 VRB15MPS 2100 -TSRA SQ BKN007
       
UACP 250530Z 34007MPS 9999 BKN030CB 20/13 Q1009 R23/0/0060 NOSIG RMK QFE744/0993
TAF UACP 250502Z 2506/2515 33007MPS 9999 BKN020CB 
     TEMPO 2506/2515 31011MPS
       
UADD 250530Z 36007MPS 330V030 9999 SCT046CB OVC100 23/09 Q1011 R31/0///65 NOSIG RMK QFE700/0934
TAF UADD 250500Z 2506/2515 26005G10MPS 9999 SCT050CB BKN100 
     PROB40 
     TEMPO 2506/2512 VRB15MPS -TSRA BKN040CB
       
UAII 250530Z 27005G10MPS 9999 BKN050CB OVC100 30/08 Q1011 R28/0///70 NOSIG RMK QFE721/0961
TAF UAII 250500Z 2506/2606 27006MPS 7000 SCT050CB BKN100 TX32/2509Z TN18/2601Z 
     TEMPO 2506/2516 VRB15MPS 4000 -TSRA BKN030CB OVC100 
     TEMPO 2516/2603 VRB13MPS 3000 -TSRA BKN033CB
       
UAKD 250500Z 36006MPS 9999 BKN060 23/10 Q1009 R04/0///65 NOSIG RMK QFE723/0965
TAF UAKD 250500Z 2506/2515 36006MPS 9999 BKN040 BKN100 
     TEMPO 2506/2512 33009MPS 
     TEMPO 2512/2515 33009MPS BKN040CB
       
UAKK 250530Z 27003MPS 210V350 9999 VCSH BKN041CB 22/10 Q1006 R23/0///70 NOSIG RMK QFE708/0944
TAF UAKK 250500Z 2506/2606 29005MPS 9999 SCT033CB BKN100 TX22/2510Z TN10/2523Z 
     TEMPO 2506/2515 VRB15MPS 2000 TSRA SQ BKN020CB 
     BECMG 2513/2515 VRB02MPS 
     TEMPO 2515/2604 2000 TSRA BR SCT006 BKN020CB
       
UAOO 250530Z 35004MPS 310V010 CAVOK 31/05 Q1009 R05/CLRD70 NOSIG RMK QFE745/0994
TAF UAOO 250500Z 2506/2515 35006MPS CAVOK
       
UARR 250530Z 15003MPS 080V200 CAVOK 30/09 Q1016 R22/CLRD70 NOSIG RMK QFE759/1012
TAF UARR 250503Z 2506/2515 05005MPS CAVOK 
     TEMPO 2506/2512 09005G10MPS
       
UASK 250530Z 34002MPS 270V030 9999 SCT050 BKN100 26/16 Q1007 R30/090060 NOSIG RMK QFE730/0973
TAF UASK 250505Z 2506/2515 32005G10MPS 9999 SCT040CB BKN100 
     TEMPO 2506/2512 VRB16MPS 3000 TSRA SQ BKN020CB
       
UASP 250530Z 25005MPS 220V280 9999 SCT021CB BKN100 23/15 Q1004 R21/0///70 NOSIG RMK QFE742/0990
TAF UASP 250500Z 2506/2515 30005MPS 9999 BKN020CB 
     TEMPO 2506/2512 VRB18MPS 2000 TSRA FU SQ SCT006 OVC020CB 
     TEMPO 2512/2515 33012MPS 2100 -TSRA
       
UASS 250530Z 17002MPS 9999 BKN040CB 25/17 Q1006 NOSIG RMK QFE736/0982
TAF UASS 250501Z 2506/2515 27007G12MPS 9999 BKN030CB BKN100 
     TEMPO 2506/2512 VRB17MPS 3000 -TSRA SQ
       
UATE 250530Z 05005MPS CAVOK 35/00 Q1013 R12/0///70 NOSIG RMK QFE757/1010
TAF UATE 250502Z 2506/2606 06006MPS CAVOK TX38/2610Z TN26/2602Z 
     BECMG 2508/2510 33006MPS
       
UATG 250530Z 10004MPS CAVOK 33/07 Q1013 R14/CLRD70 NOSIG RMK QFE762/1016
TAF UATG 250501Z 2506/2606 08005MPS 9999 SCT050 TX38/2512Z TN22/2601Z 
     BECMG 2508/2510 22007MPS 
     BECMG 2515/2517 VRB02MPS
       
UATT 250530Z 11003MPS 080V170 7000 NSC 28/08 Q1017 R13/70D NOSIG RMK QFE743/0990
TAF UATT 250500Z 2506/2606 05005MPS 5000 FU NSC TX32/2512Z TN15/2523Z 
     BECMG 2600/2602 34005MPS
       
UAUU 250530Z 35007G12MPS CAVOK 26/09 Q1013 R33/CLRD70 NOSIG RMK QFE744/0992
TAF UAUU 250500Z 2506/2515 34008MPS 9999 BKN020 BKN100 
     TEMPO 2506/2515 34012MPS BKN020CB